createdAt,value
2023-03-10T00:00:01.975Z,420.85
2023-03-10T00:02:36.546Z,373.67
2023-03-10T00:05:08.191Z,559.80
2023-03-10T00:07:39.160Z,234.80
2023-03-10T00:10:12.417Z,179.43
2023-03-10T00:12:45.212Z,147.18
2023-03-10T00:15:15.951Z,91.28
2023-03-10T00:17:47.010Z,58.47
2023-03-10T00:20:21.548Z,40.40
2023-03-10T00:22:52.406Z,36.47
2023-03-10T00:25:23.286Z,34.55
2023-03-10T00:27:54.418Z,32.53
2023-03-10T00:30:26.063Z,31.75
2023-03-10T00:32:56.914Z,39.33
2023-03-10T00:35:27.701Z,86.15
2023-03-10T00:37:59.926Z,58.85
2023-03-10T00:40:31.106Z,43.72
2023-03-10T00:43:02.323Z,51.00
2023-03-10T00:45:33.400Z,63.85
2023-03-10T00:48:04.533Z,55.58
2023-03-10T00:50:36.429Z,33.90
2023-03-10T00:53:07.653Z,32.53
2023-03-10T00:55:38.935Z,31.65
2023-03-10T00:58:10.414Z,31.02
2023-03-10T01:00:41.621Z,30.60
2023-03-10T01:03:13.858Z,29.92
2023-03-10T01:05:44.915Z,29.88
2023-03-10T01:08:19.199Z,29.92
2023-03-10T01:10:51.747Z,29.85
2023-03-10T01:13:23.061Z,29.63
2023-03-10T01:15:55.928Z,32.08
2023-03-10T01:18:28.289Z,32.33
2023-03-10T01:20:59.643Z,31.13
2023-03-10T01:23:31.060Z,31.52
2023-03-10T01:26:01.935Z,29.58
2023-03-10T01:28:32.603Z,31.48
2023-03-10T01:31:03.809Z,30.63
2023-03-10T01:33:36.778Z,28.70
2023-03-10T01:36:12.672Z,28.88
2023-03-10T01:38:45.145Z,27.00
2023-03-10T01:41:18.232Z,27.98
2023-03-10T01:43:52.726Z,26.17
2023-03-10T01:46:53.854Z,27.52
2023-03-10T01:49:46.433Z,26.65
2023-03-10T01:52:22.959Z,25.63
2023-03-10T01:55:03.062Z,27.73
2023-03-10T01:57:42.067Z,26.95
2023-03-10T02:00:14.058Z,26.13
2023-03-10T02:03:13.274Z,25.30
2023-03-10T02:06:11.637Z,25.73
2023-03-10T02:08:55.387Z,23.70
2023-03-10T02:11:27.875Z,23.88
2023-03-10T02:13:59.360Z,23.00
2023-03-10T02:16:30.734Z,24.42
2023-03-10T02:19:01.882Z,23.83
2023-03-10T02:21:48.269Z,23.63
2023-03-10T02:24:36.169Z,22.70
2023-03-10T02:27:17.542Z,28.60
2023-03-10T02:30:16.115Z,23.88
2023-03-10T02:32:57.700Z,21.60
2023-03-10T02:35:29.065Z,21.65
2023-03-10T02:38:06.764Z,26.42
2023-03-10T02:40:39.533Z,28.15
2023-03-10T02:43:16.965Z,21.20
2023-03-10T02:45:50.202Z,22.13
2023-03-10T02:48:32.914Z,20.65
2023-03-10T02:51:08.420Z,21.58
2023-03-10T02:53:41.251Z,22.92
2023-03-10T02:56:12.522Z,24.27
2023-03-10T02:58:45.862Z,20.77
2023-03-10T03:01:17.437Z,22.17
2023-03-10T03:03:50.091Z,28.60
2023-03-10T03:06:21.666Z,22.23
2023-03-10T03:08:52.931Z,22.92
2023-03-10T03:13:59.076Z,21.50
2023-03-10T03:16:30.532Z,21.63
2023-03-10T03:19:05.864Z,21.98
2023-03-10T03:21:37.389Z,22.67
2023-03-10T03:24:08.731Z,22.13
2023-03-10T03:26:42.230Z,26.45
2023-03-10T03:29:20.220Z,21.85
2023-03-10T03:31:51.545Z,25.73
2023-03-10T03:34:26.647Z,22.42
2023-03-10T03:37:04.488Z,22.95
2023-03-10T03:39:40.466Z,24.65
2023-03-10T03:42:12.857Z,22.73
2023-03-10T03:44:51.958Z,23.33
2023-03-10T03:47:24.770Z,23.50
2023-03-10T03:52:40.041Z,22.88
2023-03-10T03:55:18.595Z,23.17
2023-03-10T03:57:52.402Z,23.35
2023-03-10T04:00:26.481Z,23.35
2023-03-10T04:03:05.394Z,23.30
2023-03-10T04:05:37.386Z,22.95
2023-03-10T04:08:09.058Z,24.73
2023-03-10T04:10:40.380Z,22.42
2023-03-10T04:13:11.678Z,24.85
2023-03-10T04:15:42.949Z,23.85
2023-03-10T04:18:14.374Z,23.67
2023-03-10T04:20:46.547Z,24.38
2023-03-10T04:23:17.789Z,23.85
2023-03-10T04:25:49.166Z,23.88
2023-03-10T04:28:22.158Z,23.87
2023-03-10T04:30:56.780Z,23.30
2023-03-10T04:33:31.475Z,23.88
2023-03-10T04:36:19.265Z,22.83
2023-03-10T04:38:53.893Z,23.25
2023-03-10T04:41:30.849Z,22.05
2023-03-10T04:46:34.516Z,22.48
2023-03-10T04:49:07.122Z,23.80
2023-03-10T04:51:38.554Z,22.83
2023-03-10T04:54:09.907Z,22.48
2023-03-10T04:56:42.286Z,23.00
2023-03-10T04:59:13.709Z,23.83
2023-03-10T05:01:45.521Z,23.27
2023-03-10T05:04:16.555Z,22.90
2023-03-10T05:06:51.376Z,22.48
2023-03-10T05:09:30.637Z,22.75
2023-03-10T05:12:02.000Z,22.45
2023-03-10T05:17:07.279Z,22.17
2023-03-10T05:19:38.460Z,24.75
2023-03-10T05:22:13.240Z,22.88
2023-03-10T05:27:16.776Z,22.00
2023-03-10T05:29:47.956Z,22.30
2023-03-10T05:32:24.154Z,23.30
2023-03-10T05:34:56.193Z,22.17
2023-03-10T05:37:28.033Z,23.77
2023-03-10T05:40:00.866Z,23.05
2023-03-10T05:42:33.151Z,23.52
2023-03-10T05:45:06.547Z,22.75
2023-03-10T05:47:38.350Z,24.17
2023-03-10T05:50:12.007Z,22.88
2023-03-10T05:53:24.154Z,22.80
2023-03-10T05:55:56.452Z,23.27
2023-03-10T05:58:28.556Z,24.67
2023-03-10T06:01:00.103Z,22.90
2023-03-10T06:03:31.841Z,23.20
2023-03-10T06:06:09.776Z,23.92
2023-03-10T06:08:43.088Z,24.23
2023-03-10T06:11:15.765Z,22.60
2023-03-10T06:13:47.473Z,22.10
2023-03-10T06:16:21.522Z,21.83
2023-03-10T06:18:56.893Z,20.65
2023-03-10T06:21:29.823Z,23.98
2023-03-10T06:24:02.038Z,23.10
2023-03-10T06:26:33.504Z,22.70
2023-03-10T06:29:04.819Z,23.08
2023-03-10T06:31:36.175Z,23.45
2023-03-10T06:34:13.296Z,22.67
2023-03-10T06:36:44.661Z,22.17
2023-03-10T06:39:15.711Z,23.25
2023-03-10T06:41:46.930Z,22.55
2023-03-10T06:44:21.935Z,23.58
2023-03-10T06:46:56.132Z,22.48
2023-03-10T06:49:33.235Z,23.95
2023-03-10T06:52:04.573Z,22.70
2023-03-10T06:54:36.266Z,23.10
2023-03-10T06:57:08.067Z,22.90
2023-03-10T06:59:40.344Z,22.48
2023-03-10T07:02:14.342Z,23.15
2023-03-10T07:04:45.671Z,23.75
2023-03-10T07:07:18.299Z,50.17
2023-03-10T07:09:49.449Z,25.40
2023-03-10T07:12:23.002Z,24.75
2023-03-10T07:14:54.323Z,23.98
2023-03-10T07:17:25.332Z,23.38
2023-03-10T07:19:58.206Z,23.70
2023-03-10T07:22:29.389Z,22.52
2023-03-10T07:25:00.691Z,24.45
2023-03-10T07:27:32.309Z,27.17
2023-03-10T07:30:03.793Z,22.88
2023-03-10T07:32:35.094Z,24.30
2023-03-10T07:37:51.572Z,26.83
2023-03-10T07:40:26.369Z,26.95
2023-03-10T07:42:57.639Z,59.95
2023-03-10T07:45:32.401Z,27.20
2023-03-10T07:48:04.130Z,28.17
2023-03-10T07:50:35.024Z,39.83
2023-03-10T07:53:06.535Z,28.55
2023-03-10T07:55:39.788Z,27.67
2023-03-10T07:58:12.818Z,28.17
2023-03-10T08:01:04.439Z,28.23
2023-03-10T08:03:37.085Z,25.50
2023-03-10T08:06:11.888Z,31.08
2023-03-10T08:08:46.139Z,31.45
2023-03-10T08:11:17.510Z,29.55
2023-03-10T08:13:50.103Z,29.00
2023-03-10T08:16:32.185Z,28.20
2023-03-10T08:19:03.478Z,28.45
2023-03-10T08:21:34.969Z,23.65
2023-03-10T08:24:06.405Z,25.83
2023-03-10T08:26:37.766Z,28.55
2023-03-10T08:29:09.772Z,25.27
2023-03-10T08:31:41.228Z,28.33
2023-03-10T08:34:12.800Z,29.77
2023-03-10T08:36:44.914Z,27.48
2023-03-10T08:39:16.683Z,27.75
2023-03-10T08:41:50.866Z,27.20
2023-03-10T08:44:22.332Z,26.23
2023-03-10T08:46:55.274Z,27.67
2023-03-10T08:49:34.438Z,28.25
2023-03-10T08:52:07.552Z,28.35
2023-03-10T08:54:39.541Z,28.33
2023-03-10T08:57:11.877Z,28.15
2023-03-10T08:59:44.181Z,29.50
2023-03-10T09:02:16.988Z,28.45
2023-03-10T09:04:48.224Z,28.63
2023-03-10T09:07:19.829Z,27.63
2023-03-10T09:09:51.100Z,31.02
2023-03-10T09:12:22.569Z,27.67
2023-03-10T09:14:53.523Z,30.20
2023-03-10T09:17:24.872Z,28.40
2023-03-10T09:19:55.942Z,33.17
2023-03-10T09:22:27.404Z,29.85
2023-03-10T09:25:00.577Z,30.23
2023-03-10T09:27:31.825Z,46.72
2023-03-10T09:30:03.090Z,54.25
2023-03-10T09:32:34.348Z,53.53
2023-03-10T09:35:05.937Z,44.15
2023-03-10T09:37:37.339Z,43.03
2023-03-10T09:40:11.814Z,97.07
2023-03-10T09:42:50.473Z,50.03
2023-03-10T09:45:49.587Z,101.25
2023-03-10T09:48:38.833Z,107.05
2023-03-10T09:51:25.322Z,130.48
2023-03-10T09:54:14.933Z,371.25
2023-03-10T09:56:48.234Z,572.67
2023-03-10T09:59:41.621Z,538.80
2023-03-10T10:02:24.955Z,538.17
2023-03-10T10:05:03.298Z,526.15
2023-03-10T10:07:45.713Z,311.92
2023-03-10T10:10:20.255Z,238.50
2023-03-10T10:12:54.447Z,213.10
2023-03-10T10:15:29.863Z,309.92
2023-03-10T10:18:24.959Z,230.32
2023-03-10T10:21:08.382Z,93.55
2023-03-10T10:23:42.678Z,94.68
2023-03-10T10:26:22.699Z,107.35
2023-03-10T10:28:59.189Z,133.13
2023-03-10T10:31:36.294Z,220.38
2023-03-10T10:34:25.090Z,198.95
2023-03-10T10:37:03.964Z,160.10
2023-03-10T10:39:43.740Z,189.90
2023-03-10T10:42:26.151Z,185.07
2023-03-10T10:44:59.674Z,185.10
2023-03-10T10:47:40.145Z,202.07
2023-03-10T10:50:32.141Z,204.45
2023-03-10T10:53:16.975Z,217.32
2023-03-10T10:56:00.366Z,220.88
2023-03-10T10:58:40.588Z,198.83
2023-03-10T11:01:19.445Z,168.85
2023-03-10T11:03:51.354Z,150.27
2023-03-10T11:06:39.584Z,156.20
2023-03-10T11:09:31.190Z,136.90
2023-03-10T11:12:23.725Z,139.57
2023-03-10T11:15:03.596Z,107.85
2023-03-10T11:18:17.059Z,100.88
2023-03-10T11:20:57.773Z,98.18
2023-03-10T11:23:33.363Z,101.32
2023-03-10T11:26:20.106Z,135.85
2023-03-10T11:29:24.067Z,130.80
2023-03-10T11:32:23.457Z,128.20
2023-03-10T11:34:55.836Z,82.20
2023-03-10T11:37:33.912Z,74.32
2023-03-10T11:40:30.064Z,71.38
2023-03-10T11:43:20.591Z,70.10
2023-03-10T11:45:56.165Z,87.68
2023-03-10T11:48:45.793Z,87.78
2023-03-10T11:51:36.376Z,86.07
2023-03-10T11:54:25.681Z,80.82
2023-03-10T11:57:24.149Z,67.30
2023-03-10T12:00:09.520Z,55.80
2023-03-10T12:03:06.636Z,54.30
2023-03-10T12:05:51.652Z,52.03
2023-03-10T12:08:26.633Z,48.92
2023-03-10T12:13:54.601Z,47.37
2023-03-10T12:16:35.430Z,59.10
2023-03-10T12:19:10.384Z,52.13
2023-03-10T12:21:41.864Z,48.35
2023-03-10T12:24:48.575Z,49.20
2023-03-10T12:27:19.957Z,48.60
2023-03-10T12:29:51.521Z,58.30
2023-03-10T12:32:41.879Z,101.43
2023-03-10T12:35:36.825Z,76.47
2023-03-10T12:38:34.266Z,70.80
2023-03-10T12:41:06.359Z,69.03
2023-03-10T12:44:01.623Z,67.32
2023-03-10T12:46:49.654Z,57.33
2023-03-10T12:49:53.067Z,53.03
2023-03-10T12:52:46.728Z,52.67
2023-03-10T12:58:14.789Z,50.15
2023-03-10T13:01:10.712Z,57.67
2023-03-10T13:03:45.434Z,51.97
2023-03-10T13:06:35.361Z,51.78
2023-03-10T13:09:20.717Z,56.30
2023-03-10T13:12:02.200Z,53.92
2023-03-10T13:14:40.533Z,50.55
2023-03-10T13:17:32.110Z,51.47
2023-03-10T13:20:07.730Z,56.63
2023-03-10T13:22:39.221Z,52.90
2023-03-10T13:25:16.850Z,49.20
2023-03-10T13:27:49.226Z,48.30
2023-03-10T13:30:31.969Z,46.78
2023-03-10T13:33:06.787Z,43.92
2023-03-10T13:38:28.802Z,45.10
2023-03-10T13:41:00.154Z,45.47
2023-03-10T13:43:40.328Z,46.28
2023-03-10T13:46:27.257Z,45.13
2023-03-10T13:52:27.771Z,44.85
2023-03-10T13:55:16.651Z,42.25
2023-03-10T13:57:50.523Z,45.13
2023-03-10T14:02:58.604Z,43.35
2023-03-10T14:05:47.361Z,46.83
2023-03-10T14:08:34.048Z,45.92
2023-03-10T14:11:37.943Z,46.92
2023-03-10T14:14:12.997Z,44.53
2023-03-10T14:17:04.805Z,42.65
2023-03-10T14:19:42.111Z,44.72
2023-03-10T14:22:42.247Z,43.47
2023-03-10T14:25:15.743Z,44.65
2023-03-10T14:28:00.894Z,42.58
2023-03-10T14:30:35.094Z,44.65
2023-03-10T14:33:25.594Z,44.25
2023-03-10T14:38:42.748Z,44.83
2023-03-10T14:41:15.549Z,43.00
2023-03-10T14:43:50.341Z,43.60
2023-03-10T14:46:24.198Z,43.70
2023-03-10T14:48:55.877Z,47.50
2023-03-10T14:51:36.115Z,49.00
2023-03-10T14:54:24.813Z,45.22
2023-03-10T14:57:18.190Z,44.03
2023-03-10T14:59:54.151Z,44.03
2023-03-10T15:02:39.704Z,44.03
2023-03-10T15:05:21.626Z,44.35
2023-03-10T15:07:56.670Z,48.65
2023-03-10T15:10:39.142Z,49.40
2023-03-10T15:13:15.377Z,46.00
2023-03-10T15:15:48.999Z,45.15
2023-03-10T15:18:26.176Z,44.10
2023-03-10T15:21:25.935Z,42.72
2023-03-10T15:23:59.520Z,45.22
2023-03-10T15:26:32.222Z,46.42
2023-03-10T15:29:04.782Z,45.35
2023-03-10T15:31:37.343Z,45.53
2023-03-10T15:34:08.821Z,45.88
2023-03-10T15:36:40.275Z,45.63
2023-03-10T15:39:18.844Z,47.55
2023-03-10T15:41:57.611Z,45.10
2023-03-10T15:44:28.701Z,43.33
2023-03-10T15:49:43.842Z,46.50
2023-03-10T15:52:15.561Z,48.10
2023-03-10T15:54:47.012Z,47.15
2023-03-10T15:57:19.498Z,45.42
2023-03-10T15:59:55.158Z,44.65
2023-03-10T16:02:27.332Z,48.00
2023-03-10T16:04:59.775Z,48.70
2023-03-10T16:07:32.270Z,51.30
2023-03-10T16:10:03.827Z,51.53
2023-03-10T16:15:41.432Z,51.35
2023-03-10T16:18:34.971Z,51.60
2023-03-10T16:21:10.046Z,50.70
2023-03-10T16:23:41.792Z,47.88
2023-03-10T16:26:14.803Z,50.25
2023-03-10T16:28:48.789Z,47.27
2023-03-10T16:31:21.769Z,45.20
2023-03-10T16:33:54.125Z,46.63
2023-03-10T16:36:28.376Z,44.95
2023-03-10T16:38:59.851Z,46.22
2023-03-10T16:44:40.856Z,43.38
2023-03-10T16:49:58.183Z,46.95
2023-03-10T16:52:29.516Z,45.03
2023-03-10T16:55:21.684Z,47.75
2023-03-10T16:57:53.549Z,51.78
2023-03-10T17:00:27.999Z,45.07
2023-03-10T17:03:01.578Z,46.42
2023-03-10T17:05:33.113Z,45.40
2023-03-10T17:08:10.600Z,42.97
2023-03-10T17:10:43.870Z,44.38
2023-03-10T17:13:15.801Z,46.05
2023-03-10T17:15:57.836Z,47.80
2023-03-10T17:18:29.177Z,47.83
2023-03-10T17:21:00.344Z,46.60
2023-03-10T17:23:34.449Z,46.53
2023-03-10T17:26:05.796Z,45.00
2023-03-10T17:28:37.043Z,43.95
2023-03-10T17:31:15.160Z,44.25
2023-03-10T17:33:46.280Z,46.35
2023-03-10T17:39:10.984Z,44.92
2023-03-10T17:41:44.139Z,41.47
2023-03-10T17:44:17.083Z,40.75
2023-03-10T17:47:08.063Z,43.50
2023-03-10T17:49:39.449Z,43.30
2023-03-10T17:52:11.722Z,43.55
2023-03-10T17:54:44.878Z,42.50
2023-03-10T17:57:16.107Z,42.90
2023-03-10T17:59:47.299Z,42.35
2023-03-10T18:02:19.806Z,43.70
2023-03-10T18:04:51.032Z,44.88
2023-03-10T18:07:22.257Z,45.45
2023-03-10T18:09:53.556Z,43.45
2023-03-10T18:12:24.782Z,42.28
2023-03-10T18:14:56.031Z,42.92
2023-03-10T18:17:30.833Z,43.40
2023-03-10T18:20:02.801Z,40.70
2023-03-10T18:22:37.217Z,40.90
2023-03-10T18:25:08.760Z,40.28
2023-03-10T18:27:40.028Z,42.58
2023-03-10T18:30:12.944Z,42.72
2023-03-10T18:32:44.800Z,39.80
2023-03-10T18:35:15.880Z,41.67
2023-03-10T18:37:46.840Z,42.97
2023-03-10T18:40:19.097Z,43.75
2023-03-10T18:42:51.018Z,44.58
2023-03-10T18:45:21.795Z,42.65
2023-03-10T18:47:52.527Z,42.97
2023-03-10T18:50:23.318Z,42.47
2023-03-10T18:52:54.108Z,44.53
2023-03-10T18:55:25.178Z,44.25
2023-03-10T18:57:55.987Z,43.78
2023-03-10T19:00:27.243Z,43.42
2023-03-10T19:03:01.452Z,44.28
2023-03-10T19:05:32.240Z,44.15
2023-03-10T19:08:03.310Z,41.40
2023-03-10T19:10:35.030Z,42.15
2023-03-10T19:13:06.073Z,39.20
2023-03-10T19:15:38.496Z,41.30
2023-03-10T19:18:09.364Z,44.20
2023-03-10T19:20:41.464Z,42.42
2023-03-10T19:23:12.588Z,43.42
2023-03-10T19:25:43.423Z,40.92
2023-03-10T19:28:14.098Z,42.00
2023-03-10T19:30:45.177Z,40.45
2023-03-10T19:33:15.900Z,42.35
2023-03-10T19:35:47.348Z,44.85
2023-03-10T19:38:23.042Z,41.92
2023-03-10T19:40:54.117Z,42.50
2023-03-10T19:43:25.189Z,42.88
2023-03-10T19:46:06.852Z,43.88
2023-03-10T19:48:38.495Z,41.33
2023-03-10T19:51:10.502Z,41.42
2023-03-10T19:53:41.767Z,42.08
2023-03-10T19:56:12.552Z,40.33
2023-03-10T19:58:43.473Z,43.95
2023-03-10T20:01:25.829Z,43.42
2023-03-10T20:04:02.196Z,44.25
2023-03-10T20:06:33.338Z,41.85
2023-03-10T20:09:05.367Z,44.55
2023-03-10T20:11:36.814Z,41.22
2023-03-10T20:14:08.235Z,39.78
2023-03-10T20:16:39.240Z,42.00
2023-03-10T20:19:10.083Z,42.33
2023-03-10T20:21:42.868Z,41.10
2023-03-10T20:24:13.898Z,37.25
2023-03-10T20:26:45.626Z,38.30
2023-03-10T20:29:16.906Z,41.03
2023-03-10T20:31:48.038Z,41.38
2023-03-10T20:34:23.553Z,43.42
2023-03-10T20:36:54.555Z,43.10
2023-03-10T20:39:26.166Z,42.47
2023-03-10T20:41:57.220Z,41.28
2023-03-10T20:44:28.476Z,42.42
2023-03-10T20:46:59.217Z,41.30
2023-03-10T20:49:30.356Z,41.75
2023-03-10T20:52:01.436Z,41.58
2023-03-10T20:54:32.526Z,41.78
2023-03-10T20:57:03.562Z,40.60
2023-03-10T20:59:34.273Z,41.38
2023-03-10T21:02:06.847Z,40.67
2023-03-10T21:04:37.809Z,41.30
2023-03-10T21:07:08.827Z,41.83
2023-03-10T21:09:39.942Z,40.30
2023-03-10T21:12:11.706Z,42.03
2023-03-10T21:14:42.682Z,43.17
2023-03-10T21:17:15.636Z,43.00
2023-03-10T21:19:46.338Z,39.65
2023-03-10T21:22:16.990Z,41.70
2023-03-10T21:24:47.933Z,40.03
2023-03-10T21:27:19.047Z,44.90
2023-03-10T21:29:50.203Z,49.60
2023-03-10T21:32:22.662Z,43.20
2023-03-10T21:34:54.798Z,41.90
2023-03-10T21:37:25.950Z,40.00
2023-03-10T21:39:56.758Z,41.78
2023-03-10T21:42:28.112Z,40.47
2023-03-10T21:44:59.147Z,37.25
2023-03-10T21:47:30.213Z,41.03
2023-03-10T21:50:01.238Z,40.33
2023-03-10T21:52:32.229Z,39.42
2023-03-10T21:55:02.972Z,41.05
2023-03-10T21:57:39.205Z,38.63
2023-03-10T22:00:11.114Z,39.80
2023-03-10T22:02:42.500Z,42.05
2023-03-10T22:05:20.701Z,40.30
2023-03-10T22:07:54.067Z,41.03
2023-03-10T22:10:25.038Z,40.75
2023-03-10T22:12:56.177Z,39.17
2023-03-10T22:15:29.035Z,41.30
2023-03-10T22:18:01.039Z,39.53
2023-03-10T22:20:31.882Z,43.45
2023-03-10T22:23:02.908Z,41.15
2023-03-10T22:25:36.257Z,41.20
2023-03-10T22:28:07.667Z,40.88
2023-03-10T22:30:40.235Z,40.90
2023-03-10T22:33:11.762Z,41.50
2023-03-10T22:35:42.877Z,41.00
2023-03-10T22:38:15.168Z,40.20
2023-03-10T22:40:46.186Z,40.38
2023-03-10T22:43:18.593Z,41.35
2023-03-10T22:45:49.572Z,41.72
2023-03-10T22:48:24.001Z,39.40
2023-03-10T22:50:55.090Z,41.00
2023-03-10T22:53:26.210Z,41.55
2023-03-10T22:55:59.546Z,37.95
2023-03-10T22:58:30.841Z,39.95
2023-03-10T23:01:21.452Z,39.97
2023-03-10T23:03:52.150Z,40.65
2023-03-10T23:06:24.188Z,39.00
2023-03-10T23:08:55.226Z,39.08
2023-03-10T23:11:29.497Z,38.33
2023-03-10T23:14:04.757Z,40.22
2023-03-10T23:16:38.052Z,40.83
2023-03-10T23:19:10.380Z,39.75
2023-03-10T23:21:41.205Z,40.25
2023-03-10T23:24:12.570Z,40.38
2023-03-10T23:26:43.652Z,42.60
2023-03-10T23:29:14.986Z,38.65
2023-03-10T23:31:45.857Z,40.20
2023-03-10T23:34:16.948Z,40.03
2023-03-10T23:36:50.803Z,40.80
2023-03-10T23:39:34.529Z,40.13
2023-03-10T23:42:05.444Z,40.42
2023-03-10T23:44:36.425Z,40.03
2023-03-10T23:47:07.354Z,39.47
2023-03-10T23:49:38.218Z,39.95
2023-03-10T23:52:08.975Z,40.70
2023-03-10T23:54:39.997Z,40.65
2023-03-10T23:57:10.822Z,38.38
2023-03-10T23:59:42.841Z,40.90
